sensor_id;sensor_type;location;lat;lon;timestamp;pressure;altitude;pressure_sealevel;temperature;humidity
17764;BME280;22245;52.832;13.816;2023-04-23T00:01:26;100593.91;;;13.27;57.42
17764;BME280;22245;52.832;13.816;2023-04-23T00:04:50;100593.19;;;13.25;57.00
17764;BME280;22245;52.832;13.816;2023-04-23T00:08:14;100590.69;;;13.23;57.11
17764;BME280;22245;52.832;13.816;2023-04-23T00:11:39;100581.13;;;13.21;56.78
17764;BME280;22245;52.832;13.816;2023-04-23T00:15:02;100578.75;;;13.17;56.62
17764;BME280;22245;52.832;13.816;2023-04-23T00:18:24;100576.09;;;13.17;56.59
17764;BME280;22245;52.832;13.816;2023-04-23T00:21:46;100559.53;;;13.14;56.67
17764;BME280;22245;52.832;13.816;2023-04-23T00:25:08;100557.00;;;13.12;56.18
17764;BME280;22245;52.832;13.816;2023-04-23T00:28:32;100554.50;;;13.11;56.27
17764;BME280;22245;52.832;13.816;2023-04-23T00:31:53;100550.28;;;13.08;56.31
17764;BME280;22245;52.832;13.816;2023-04-23T00:35:16;100548.03;;;13.03;57.07
17764;BME280;22245;52.832;13.816;2023-04-23T00:38:40;100546.53;;;13.01;56.59
17764;BME280;22245;52.832;13.816;2023-04-23T00:42:02;100547.97;;;12.95;56.64
17764;BME280;22245;52.832;13.816;2023-04-23T00:45:31;100545.78;;;12.91;56.54
17764;BME280;22245;52.832;13.816;2023-04-23T00:48:53;100547.75;;;12.88;56.99
17764;BME280;22245;52.832;13.816;2023-04-23T00:52:14;100550.19;;;12.82;57.02
17764;BME280;22245;52.832;13.816;2023-04-23T00:55:36;100544.16;;;12.80;56.78
17764;BME280;22245;52.832;13.816;2023-04-23T00:58:58;100554.28;;;12.76;56.92
17764;BME280;22245;52.832;13.816;2023-04-23T01:02:23;100541.38;;;12.71;57.97
17764;BME280;22245;52.832;13.816;2023-04-23T01:05:47;100540.16;;;12.66;57.62
17764;BME280;22245;52.832;13.816;2023-04-23T01:09:09;100544.94;;;12.62;57.37
17764;BME280;22245;52.832;13.816;2023-04-23T01:12:32;100547.22;;;12.57;58.00
17764;BME280;22245;52.832;13.816;2023-04-23T01:15:54;100537.00;;;12.52;57.82
17764;BME280;22245;52.832;13.816;2023-04-23T01:19:18;100537.25;;;12.49;58.28
17764;BME280;22245;52.832;13.816;2023-04-23T01:22:41;100531.41;;;12.45;58.66
17764;BME280;22245;52.832;13.816;2023-04-23T01:26:02;100532.00;;;12.39;58.74
17764;BME280;22245;52.832;13.816;2023-04-23T01:29:24;100534.13;;;12.36;59.09
17764;BME280;22245;52.832;13.816;2023-04-23T01:32:47;100533.72;;;12.30;59.44
17764;BME280;22245;52.832;13.816;2023-04-23T01:36:10;100529.66;;;12.26;60.07
17764;BME280;22245;52.832;13.816;2023-04-23T01:39:33;100534.44;;;12.23;59.86
17764;BME280;22245;52.832;13.816;2023-04-23T01:42:56;100533.91;;;12.19;59.95
17764;BME280;22245;52.832;13.816;2023-04-23T01:46:19;100528.03;;;12.15;60.81
17764;BME280;22245;52.832;13.816;2023-04-23T01:49:41;100522.84;;;12.14;60.59
17764;BME280;22245;52.832;13.816;2023-04-23T01:53:02;100527.47;;;12.12;60.24
17764;BME280;22245;52.832;13.816;2023-04-23T01:56:26;100521.28;;;12.11;60.57
17764;BME280;22245;52.832;13.816;2023-04-23T01:59:49;100524.09;;;12.10;60.78
17764;BME280;22245;52.832;13.816;2023-04-23T02:03:11;100525.94;;;12.09;60.95
17764;BME280;22245;52.832;13.816;2023-04-23T02:06:32;100525.25;;;12.07;61.19
17764;BME280;22245;52.832;13.816;2023-04-23T02:09:54;100523.41;;;12.08;60.80
17764;BME280;22245;52.832;13.816;2023-04-23T02:13:17;100516.38;;;12.07;60.78
17764;BME280;22245;52.832;13.816;2023-04-23T02:16:38;100517.94;;;12.09;61.83
17764;BME280;22245;52.832;13.816;2023-04-23T02:19:59;100516.38;;;12.07;61.51
17764;BME280;22245;52.832;13.816;2023-04-23T02:23:22;100514.56;;;12.07;61.60
17764;BME280;22245;52.832;13.816;2023-04-23T02:26:43;100518.06;;;12.08;62.00
17764;BME280;22245;52.832;13.816;2023-04-23T02:30:08;100509.22;;;12.07;61.53
17764;BME280;22245;52.832;13.816;2023-04-23T02:33:30;100504.72;;;12.08;62.18
17764;BME280;22245;52.832;13.816;2023-04-23T02:36:52;100517.25;;;12.07;61.77
17764;BME280;22245;52.832;13.816;2023-04-23T02:40:13;100504.03;;;12.06;62.23
17764;BME280;22245;52.832;13.816;2023-04-23T02:43:35;100501.34;;;12.06;62.31
17764;BME280;22245;52.832;13.816;2023-04-23T02:46:58;100503.03;;;12.07;62.55
17764;BME280;22245;52.832;13.816;2023-04-23T02:50:20;100505.72;;;12.07;61.87
17764;BME280;22245;52.832;13.816;2023-04-23T02:53:41;100503.72;;;12.09;62.44
17764;BME280;22245;52.832;13.816;2023-04-23T02:57:03;100502.75;;;12.10;61.90
17764;BME280;22245;52.832;13.816;2023-04-23T03:00:26;100501.63;;;12.12;62.58
17764;BME280;22245;52.832;13.816;2023-04-23T03:03:49;100491.94;;;12.11;62.63
17764;BME280;22245;52.832;13.816;2023-04-23T03:07:12;100482.25;;;12.10;62.85
17764;BME280;22245;52.832;13.816;2023-04-23T03:10:36;100487.41;;;12.12;62.63
17764;BME280;22245;52.832;13.816;2023-04-23T03:13:58;100487.59;;;12.10;62.36
17764;BME280;22245;52.832;13.816;2023-04-23T03:17:19;100484.06;;;12.10;62.60
17764;BME280;22245;52.832;13.816;2023-04-23T03:20:42;100491.94;;;12.11;62.95
17764;BME280;22245;52.832;13.816;2023-04-23T03:24:04;100492.06;;;12.10;63.23
17764;BME280;22245;52.832;13.816;2023-04-23T03:27:26;100484.75;;;12.12;63.31
17764;BME280;22245;52.832;13.816;2023-04-23T03:30:47;100498.09;;;12.12;63.52
17764;BME280;22245;52.832;13.816;2023-04-23T03:34:09;100492.63;;;12.13;64.13
17764;BME280;22245;52.832;13.816;2023-04-23T03:37:33;100466.78;;;12.14;64.97
17764;BME280;22245;52.832;13.816;2023-04-23T03:40:55;100488.28;;;12.12;64.57
17764;BME280;22245;52.832;13.816;2023-04-23T03:44:17;100494.72;;;12.10;65.04
17764;BME280;22245;52.832;13.816;2023-04-23T03:47:39;100486.72;;;12.10;66.32
17764;BME280;22245;52.832;13.816;2023-04-23T03:51:01;100484.22;;;12.08;67.86
17764;BME280;22245;52.832;13.816;2023-04-23T03:54:30;100482.53;;;12.07;68.01
17764;BME280;22245;52.832;13.816;2023-04-23T03:58:12;100471.16;;;12.05;69.28
17764;BME280;22245;52.832;13.816;2023-04-23T04:01:36;100491.66;;;12.05;68.65
17764;BME280;22245;52.832;13.816;2023-04-23T04:04:58;100494.34;;;12.05;68.81
17764;BME280;22245;52.832;13.816;2023-04-23T04:08:20;100488.88;;;12.06;68.75
17764;BME280;22245;52.832;13.816;2023-04-23T04:11:43;100488.00;;;12.06;69.18
17764;BME280;22245;52.832;13.816;2023-04-23T04:15:05;100480.84;;;12.06;69.52
17764;BME280;22245;52.832;13.816;2023-04-23T04:18:27;100474.66;;;12.06;70.19
17764;BME280;22245;52.832;13.816;2023-04-23T04:21:49;100481.69;;;12.07;69.93
17764;BME280;22245;52.832;13.816;2023-04-23T04:25:10;100482.53;;;12.07;69.49
17764;BME280;22245;52.832;13.816;2023-04-23T04:28:34;100478.19;;;12.06;69.70
17764;BME280;22245;52.832;13.816;2023-04-23T04:31:56;100467.66;;;12.05;69.60
17764;BME280;22245;52.832;13.816;2023-04-23T04:35:19;100465.97;;;12.04;68.81
17764;BME280;22245;52.832;13.816;2023-04-23T04:38:40;100464.28;;;12.02;69.48
17764;BME280;22245;52.832;13.816;2023-04-23T04:42:03;100456.28;;;12.02;69.85
17764;BME280;22245;52.832;13.816;2023-04-23T04:45:27;100454.47;;;12.03;70.05
17764;BME280;22245;52.832;13.816;2023-04-23T04:48:49;100452.63;;;12.04;69.61
17764;BME280;22245;52.832;13.816;2023-04-23T04:52:10;100454.72;;;12.00;69.28
17764;BME280;22245;52.832;13.816;2023-04-23T04:55:32;100468.94;;;12.00;69.30
17764;BME280;22245;52.832;13.816;2023-04-23T04:58:53;100478.88;;;11.98;70.19
17764;BME280;22245;52.832;13.816;2023-04-23T05:02:16;100483.41;;;11.98;70.70
17764;BME280;22245;52.832;13.816;2023-04-23T05:05:39;100478.06;;;11.98;71.51
17764;BME280;22245;52.832;13.816;2023-04-23T05:09:01;100479.59;;;12.00;72.55
17764;BME280;22245;52.832;13.816;2023-04-23T05:12:22;100482.28;;;12.00;73.34
17764;BME280;22245;52.832;13.816;2023-04-23T05:15:44;100491.25;;;11.99;73.08
17764;BME280;22245;52.832;13.816;2023-04-23T05:19:07;100478.75;;;12.00;74.10
17764;BME280;22245;52.832;13.816;2023-04-23T05:22:29;100494.34;;;12.05;75.23
17764;BME280;22245;52.832;13.816;2023-04-23T05:25:50;100489.69;;;12.07;75.20
17764;BME280;22245;52.832;13.816;2023-04-23T05:29:15;100491.06;;;12.11;74.42
17764;BME280;22245;52.832;13.816;2023-04-23T05:32:39;100495.16;;;12.15;75.05
17764;BME280;22245;52.832;13.816;2023-04-23T05:36:02;100491.19;;;12.19;74.43
17764;BME280;22245;52.832;13.816;2023-04-23T05:39:23;100491.72;;;12.23;75.22
17764;BME280;22245;52.832;13.816;2023-04-23T05:42:45;100494.97;;;12.26;75.66
17764;BME280;22245;52.832;13.816;2023-04-23T05:46:06;100488.31;;;12.30;76.11
17764;BME280;22245;52.832;13.816;2023-04-23T05:49:28;100491.38;;;12.36;75.86
17764;BME280;22245;52.832;13.816;2023-04-23T05:52:51;100482.78;;;12.42;75.59
17764;BME280;22245;52.832;13.816;2023-04-23T05:56:13;100495.25;;;12.51;76.59
17764;BME280;22245;52.832;13.816;2023-04-23T05:59:35;100503.34;;;12.59;76.12
17764;BME280;22245;52.832;13.816;2023-04-23T06:02:56;100492.88;;;12.66;75.74
17764;BME280;22245;52.832;13.816;2023-04-23T06:06:18;100498.16;;;12.76;76.04
17764;BME280;22245;52.832;13.816;2023-04-23T06:09:41;100490.22;;;12.84;76.78
17764;BME280;22245;52.832;13.816;2023-04-23T06:13:03;100485.66;;;12.95;76.44
17764;BME280;22245;52.832;13.816;2023-04-23T06:16:24;100482.06;;;13.04;75.75
17764;BME280;22245;52.832;13.816;2023-04-23T06:19:46;100486.16;;;13.16;75.10
17764;BME280;22245;52.832;13.816;2023-04-23T06:23:07;100486.63;;;13.30;74.87
17764;BME280;22245;52.832;13.816;2023-04-23T06:26:30;100487.19;;;13.42;74.72
17764;BME280;22245;52.832;13.816;2023-04-23T06:29:57;100481.47;;;13.55;74.43
17764;BME280;22245;52.832;13.816;2023-04-23T06:33:18;100491.06;;;13.66;74.10
17764;BME280;22245;52.832;13.816;2023-04-23T06:36:40;100479.78;;;13.80;73.57
17764;BME280;22245;52.832;13.816;2023-04-23T06:40:03;100481.03;;;13.94;73.65
17764;BME280;22245;52.832;13.816;2023-04-23T06:43:27;100475.22;;;14.07;72.76
17764;BME280;22245;52.832;13.816;2023-04-23T06:47:15;100477.31;;;14.22;72.57
17764;BME280;22245;52.832;13.816;2023-04-23T06:50:37;100485.06;;;14.33;72.04
17764;BME280;22245;52.832;13.816;2023-04-23T06:53:58;100484.06;;;14.42;71.36
17764;BME280;22245;52.832;13.816;2023-04-23T06:57:20;100476.56;;;14.54;71.24
17764;BME280;22245;52.832;13.816;2023-04-23T07:00:43;100477.44;;;14.63;71.64
17764;BME280;22245;52.832;13.816;2023-04-23T07:04:05;100473.25;;;14.69;70.70
17764;BME280;22245;52.832;13.816;2023-04-23T07:07:27;100482.03;;;14.79;71.05
17764;BME280;22245;52.832;13.816;2023-04-23T07:10:48;100488.53;;;14.85;70.88
17764;BME280;22245;52.832;13.816;2023-04-23T07:14:10;100487.53;;;14.94;71.19
17764;BME280;22245;52.832;13.816;2023-04-23T07:17:33;100483.38;;;15.00;71.21
17764;BME280;22245;52.832;13.816;2023-04-23T07:20:55;100481.69;;;15.07;71.10
17764;BME280;22245;52.832;13.816;2023-04-23T07:24:17;100478.19;;;15.15;71.61
17764;BME280;22245;52.832;13.816;2023-04-23T07:27:38;100480.53;;;15.18;70.42
17764;BME280;22245;52.832;13.816;2023-04-23T07:31:01;100477.34;;;15.23;71.07
17764;BME280;22245;52.832;13.816;2023-04-23T07:34:24;100482.19;;;15.27;71.41
17764;BME280;22245;52.832;13.816;2023-04-23T07:37:45;100495.94;;;15.32;71.05
17764;BME280;22245;52.832;13.816;2023-04-23T07:41:07;100502.16;;;15.33;71.50
17764;BME280;22245;52.832;13.816;2023-04-23T07:44:28;100497.31;;;15.37;71.96
17764;BME280;22245;52.832;13.816;2023-04-23T07:47:50;100501.13;;;15.42;71.64
17764;BME280;22245;52.832;13.816;2023-04-23T07:51:13;100513.22;;;15.46;70.98
17764;BME280;22245;52.832;13.816;2023-04-23T07:54:35;100500.47;;;15.48;71.70
17764;BME280;22245;52.832;13.816;2023-04-23T07:57:56;100505.47;;;15.52;71.77
17764;BME280;22245;52.832;13.816;2023-04-23T08:01:17;100509.69;;;15.54;71.75
17764;BME280;22245;52.832;13.816;2023-04-23T08:04:39;100502.50;;;15.55;72.39
17764;BME280;22245;52.832;13.816;2023-04-23T08:08:02;100506.00;;;15.55;72.85
17764;BME280;22245;52.832;13.816;2023-04-23T08:11:24;100510.53;;;15.55;72.74
17764;BME280;22245;52.832;13.816;2023-04-23T08:14:45;100511.53;;;15.45;74.32
17764;BME280;22245;52.832;13.816;2023-04-23T08:18:10;100512.38;;;15.46;74.70
17764;BME280;22245;52.832;13.816;2023-04-23T08:21:32;100517.25;;;15.42;75.69
17764;BME280;22245;52.832;13.816;2023-04-23T08:24:55;100519.59;;;15.37;76.40
17764;BME280;22245;52.832;13.816;2023-04-23T08:28:17;100522.47;;;15.36;77.72
17764;BME280;22245;52.832;13.816;2023-04-23T08:31:39;100529.00;;;15.33;79.16
17764;BME280;22245;52.832;13.816;2023-04-23T08:35:00;100527.31;;;15.32;79.57
17764;BME280;22245;52.832;13.816;2023-04-23T08:38:22;100530.00;;;15.32;81.24
17764;BME280;22245;52.832;13.816;2023-04-23T08:41:49;100537.38;;;15.30;82.29
17764;BME280;22245;52.832;13.816;2023-04-23T08:45:14;100539.38;;;15.28;82.59
17764;BME280;22245;52.832;13.816;2023-04-23T08:48:37;100534.34;;;15.25;83.17
17764;BME280;22245;52.832;13.816;2023-04-23T08:52:09;100540.72;;;15.24;84.45
17764;BME280;22245;52.832;13.816;2023-04-23T08:55:34;100542.41;;;15.25;84.80
17764;BME280;22245;52.832;13.816;2023-04-23T08:58:57;100532.50;;;15.25;85.24
17764;BME280;22245;52.832;13.816;2023-04-23T09:02:19;100534.03;;;15.28;85.64
17764;BME280;22245;52.832;13.816;2023-04-23T09:05:43;100539.72;;;15.25;84.66
17764;BME280;22245;52.832;13.816;2023-04-23T09:09:05;100543.22;;;15.25;84.55
17764;BME280;22245;52.832;13.816;2023-04-23T09:12:29;100539.06;;;15.23;84.92
17764;BME280;22245;52.832;13.816;2023-04-23T09:15:52;100544.09;;;15.26;85.40
17764;BME280;22245;52.832;13.816;2023-04-23T09:19:14;100544.22;;;15.24;85.24
17764;BME280;22245;52.832;13.816;2023-04-23T09:22:38;100539.72;;;15.25;85.79
17764;BME280;22245;52.832;13.816;2023-04-23T09:25:59;100535.69;;;15.29;86.30
17764;BME280;22245;52.832;13.816;2023-04-23T09:29:26;100542.75;;;15.30;86.64
17764;BME280;22245;52.832;13.816;2023-04-23T09:32:50;100541.72;;;15.31;86.08
17764;BME280;22245;52.832;13.816;2023-04-23T09:36:14;100539.38;;;15.36;86.27
17764;BME280;22245;52.832;13.816;2023-04-23T09:39:35;100540.91;;;15.39;86.61
17764;BME280;22245;52.832;13.816;2023-04-23T09:42:57;100544.75;;;15.36;86.94
17764;BME280;22245;52.832;13.816;2023-04-23T09:46:31;100543.41;;;15.32;86.96
17764;BME280;22245;52.832;13.816;2023-04-23T09:49:55;100531.19;;;15.38;87.43
17764;BME280;22245;52.832;13.816;2023-04-23T09:53:18;100536.69;;;15.44;88.10
17764;BME280;22245;52.832;13.816;2023-04-23T09:56:40;100524.78;;;15.47;86.81
17764;BME280;22245;52.832;13.816;2023-04-23T10:00:12;100537.88;;;15.50;86.38
17764;BME280;22245;52.832;13.816;2023-04-23T10:03:35;100532.00;;;15.55;86.68
17764;BME280;22245;52.832;13.816;2023-04-23T10:07:03;100527.13;;;15.58;86.44
17764;BME280;22245;52.832;13.816;2023-04-23T10:10:39;100523.09;;;15.62;85.99
17764;BME280;22245;52.832;13.816;2023-04-23T10:14:05;100522.94;;;15.64;86.61
17764;BME280;22245;52.832;13.816;2023-04-23T10:17:28;100533.47;;;15.66;86.27
17764;BME280;22245;52.832;13.816;2023-04-23T10:20:51;100532.66;;;15.65;85.51
17764;BME280;22245;52.832;13.816;2023-04-23T10:24:16;100539.38;;;15.61;85.80
17764;BME280;22245;52.832;13.816;2023-04-23T10:27:42;100542.22;;;15.59;86.59
17764;BME280;22245;52.832;13.816;2023-04-23T10:31:14;100543.91;;;15.52;87.40
17764;BME280;22245;52.832;13.816;2023-04-23T10:34:36;100547.44;;;15.36;86.36
17764;BME280;22245;52.832;13.816;2023-04-23T10:37:59;100558.84;;;15.30;85.88
17764;BME280;22245;52.832;13.816;2023-04-23T10:41:26;100566.22;;;15.19;85.97
17764;BME280;22245;52.832;13.816;2023-04-23T10:44:54;100572.19;;;14.97;84.60
17764;BME280;22245;52.832;13.816;2023-04-23T10:48:26;100578.34;;;14.72;85.00
17764;BME280;22245;52.832;13.816;2023-04-23T10:51:48;100574.28;;;14.68;86.18
17764;BME280;22245;52.832;13.816;2023-04-23T10:55:15;100578.09;;;14.66;86.22
17764;BME280;22245;52.832;13.816;2023-04-23T10:58:49;100575.75;;;14.62;87.44
17764;BME280;22245;52.832;13.816;2023-04-23T11:02:11;100574.41;;;14.58;88.01
17764;BME280;22245;52.832;13.816;2023-04-23T11:05:34;100584.25;;;14.58;88.87
17764;BME280;22245;52.832;13.816;2023-04-23T11:08:56;100579.09;;;14.56;89.93
17764;BME280;22245;52.832;13.816;2023-04-23T11:12:30;100582.91;;;14.54;88.90
17764;BME280;22245;52.832;13.816;2023-04-23T11:16:15;100581.38;;;14.43;88.15
17764;BME280;22245;52.832;13.816;2023-04-23T11:19:38;100580.16;;;14.37;88.35
17764;BME280;22245;52.832;13.816;2023-04-23T11:23:00;100590.72;;;14.39;89.47
17764;BME280;22245;52.832;13.816;2023-04-23T11:26:26;100587.34;;;14.37;89.14
17764;BME280;22245;52.832;13.816;2023-04-23T11:29:51;100585.81;;;14.26;89.70
17764;BME280;22245;52.832;13.816;2023-04-23T11:33:15;100581.91;;;14.20;90.52
17764;BME280;22245;52.832;13.816;2023-04-23T11:36:37;100587.81;;;14.24;91.55
17764;BME280;22245;52.832;13.816;2023-04-23T11:40:04;100575.47;;;14.31;92.46
17764;BME280;22245;52.832;13.816;2023-04-23T11:43:27;100584.00;;;14.35;91.12
17764;BME280;22245;52.832;13.816;2023-04-23T11:46:49;100583.50;;;14.31;89.42
17764;BME280;22245;52.832;13.816;2023-04-23T11:50:17;100582.28;;;14.25;89.99
17764;BME280;22245;52.832;13.816;2023-04-23T11:53:44;100577.59;;;14.27;90.64
17764;BME280;22245;52.832;13.816;2023-04-23T11:57:06;100590.16;;;14.27;88.60
17764;BME280;22245;52.832;13.816;2023-04-23T12:00:27;100585.50;;;14.29;89.30
17764;BME280;22245;52.832;13.816;2023-04-23T12:03:49;100596.53;;;14.26;88.60
17764;BME280;22245;52.832;13.816;2023-04-23T12:07:12;100593.31;;;14.22;88.94
17764;BME280;22245;52.832;13.816;2023-04-23T12:10:48;100599.44;;;14.14;89.35
17764;BME280;22245;52.832;13.816;2023-04-23T12:14:12;100601.94;;;14.08;89.85
17764;BME280;22245;52.832;13.816;2023-04-23T12:17:34;100619.47;;;14.02;90.53
17764;BME280;22245;52.832;13.816;2023-04-23T12:20:56;100637.88;;;13.79;86.38
17764;BME280;22245;52.832;13.816;2023-04-23T12:24:27;100632.59;;;13.51;85.42
17764;BME280;22245;52.832;13.816;2023-04-23T12:27:49;100624.19;;;13.45;86.95
17764;BME280;22245;52.832;13.816;2023-04-23T12:31:18;100632.59;;;13.51;87.15
17764;BME280;22245;52.832;13.816;2023-04-23T12:34:50;100637.66;;;13.54;87.26
17764;BME280;22245;52.832;13.816;2023-04-23T12:38:31;100617.63;;;13.58;88.35
17764;BME280;22245;52.832;13.816;2023-04-23T12:41:55;100616.22;;;13.72;89.20
17764;BME280;22245;52.832;13.816;2023-04-23T12:45:19;100618.75;;;13.73;88.59
17764;BME280;22245;52.832;13.816;2023-04-23T12:48:40;100624.03;;;13.83;87.70
17764;BME280;22245;52.832;13.816;2023-04-23T12:52:03;100623.19;;;13.83;85.42
17764;BME280;22245;52.832;13.816;2023-04-23T12:55:25;100621.72;;;13.88;84.77
17764;BME280;22245;52.832;13.816;2023-04-23T12:58:48;100623.91;;;13.93;85.97
17764;BME280;22245;52.832;13.816;2023-04-23T13:02:09;100631.50;;;13.98;83.82
17764;BME280;22245;52.832;13.816;2023-04-23T13:05:31;100624.97;;;14.00;81.92
17764;BME280;22245;52.832;13.816;2023-04-23T13:08:52;100612.13;;;14.04;81.14
17764;BME280;22245;52.832;13.816;2023-04-23T13:12:14;100613.03;;;14.13;81.92
17764;BME280;22245;52.832;13.816;2023-04-23T13:15:37;100612.06;;;14.22;79.96
17764;BME280;22245;52.832;13.816;2023-04-23T13:18:59;100611.75;;;14.25;77.92
17764;BME280;22245;52.832;13.816;2023-04-23T13:22:21;100609.63;;;14.37;79.58
17764;BME280;22245;52.832;13.816;2023-04-23T13:25:47;100607.84;;;14.46;78.39
17764;BME280;22245;52.832;13.816;2023-04-23T13:29:09;100595.16;;;14.56;78.96
17764;BME280;22245;52.832;13.816;2023-04-23T13:32:32;100593.03;;;14.68;79.11
17764;BME280;22245;52.832;13.816;2023-04-23T13:35:53;100597.31;;;14.79;76.75
17764;BME280;22245;52.832;13.816;2023-04-23T13:39:15;100595.13;;;14.91;75.97
17764;BME280;22245;52.832;13.816;2023-04-23T13:42:37;100593.66;;;15.05;76.30
17764;BME280;22245;52.832;13.816;2023-04-23T13:45:59;100588.00;;;15.16;74.46
17764;BME280;22245;52.832;13.816;2023-04-23T13:49:22;100586.16;;;15.25;72.38
17764;BME280;22245;52.832;13.816;2023-04-23T13:52:44;100588.16;;;15.31;71.55
17764;BME280;22245;52.832;13.816;2023-04-23T13:56:05;100587.34;;;15.39;71.55
17764;BME280;22245;52.832;13.816;2023-04-23T13:59:27;100583.16;;;15.45;70.85
17764;BME280;22245;52.832;13.816;2023-04-23T14:02:49;100582.97;;;15.46;70.49
17764;BME280;22245;52.832;13.816;2023-04-23T14:06:12;100576.28;;;15.51;69.98
17764;BME280;22245;52.832;13.816;2023-04-23T14:09:33;100580.31;;;15.55;70.21
17764;BME280;22245;52.832;13.816;2023-04-23T14:12:55;100577.31;;;15.58;70.33
17764;BME280;22245;52.832;13.816;2023-04-23T14:16:17;100582.66;;;15.66;69.45
17764;BME280;22245;52.832;13.816;2023-04-23T14:19:39;100576.59;;;15.72;69.98
17764;BME280;22245;52.832;13.816;2023-04-23T14:23:19;100573.44;;;15.77;68.88
17764;BME280;22245;52.832;13.816;2023-04-23T14:26:52;100576.25;;;15.84;68.91
17764;BME280;22245;52.832;13.816;2023-04-23T14:30:15;100575.09;;;15.86;67.92
17764;BME280;22245;52.832;13.816;2023-04-23T14:33:36;100577.31;;;15.91;67.87
17764;BME280;22245;52.832;13.816;2023-04-23T14:36:58;100573.94;;;15.97;67.74
17764;BME280;22245;52.832;13.816;2023-04-23T14:40:21;100576.25;;;16.09;68.14
17764;BME280;22245;52.832;13.816;2023-04-23T14:43:42;100562.31;;;16.13;67.86
17764;BME280;22245;52.832;13.816;2023-04-23T14:47:04;100566.81;;;16.21;65.76
17764;BME280;22245;52.832;13.816;2023-04-23T14:50:27;100558.28;;;16.57;65.18
17764;BME280;22245;52.832;13.816;2023-04-23T14:53:49;100547.44;;;18.05;62.09
17764;BME280;22245;52.832;13.816;2023-04-23T14:57:15;100548.03;;;19.04;57.98
17764;BME280;22245;52.832;13.816;2023-04-23T15:00:37;100545.91;;;19.43;55.38
17764;BME280;22245;52.832;13.816;2023-04-23T15:03:59;100537.84;;;19.50;56.01
17764;BME280;22245;52.832;13.816;2023-04-23T15:07:21;100532.41;;;19.93;53.60
17764;BME280;22245;52.832;13.816;2023-04-23T15:10:43;100526.19;;;19.71;53.10
17764;BME280;22245;52.832;13.816;2023-04-23T15:14:07;100525.34;;;19.20;54.37
17764;BME280;22245;52.832;13.816;2023-04-23T15:17:38;100524.53;;;18.83;55.84
17764;BME280;22245;52.832;13.816;2023-04-23T15:20:59;100531.25;;;18.50;56.36
17764;BME280;22245;52.832;13.816;2023-04-23T15:24:22;100526.78;;;18.28;56.38
17764;BME280;22245;52.832;13.816;2023-04-23T15:27:44;100525.72;;;18.07;57.03
17764;BME280;22245;52.832;13.816;2023-04-23T15:31:07;100525.47;;;17.93;57.84
17764;BME280;22245;52.832;13.816;2023-04-23T15:34:28;100516.81;;;17.83;58.27
17764;BME280;22245;52.832;13.816;2023-04-23T15:37:50;100525.00;;;17.75;58.76
17764;BME280;22245;52.832;13.816;2023-04-23T15:41:12;100514.31;;;17.67;59.33
17764;BME280;22245;52.832;13.816;2023-04-23T15:44:34;100507.63;;;17.62;58.29
17764;BME280;22245;52.832;13.816;2023-04-23T15:47:57;100507.31;;;17.57;56.13
17764;BME280;22245;52.832;13.816;2023-04-23T15:51:18;100499.81;;;17.53;56.40
17764;BME280;22245;52.832;13.816;2023-04-23T15:54:40;100494.59;;;17.51;56.64
17764;BME280;22245;52.832;13.816;2023-04-23T15:58:02;100488.19;;;17.52;56.82
17764;BME280;22245;52.832;13.816;2023-04-23T16:01:24;100486.81;;;17.71;56.30
17764;BME280;22245;52.832;13.816;2023-04-23T16:04:48;100484.25;;;18.23;55.87
17764;BME280;22245;52.832;13.816;2023-04-23T16:08:10;100475.22;;;18.68;53.92
17764;BME280;22245;52.832;13.816;2023-04-23T16:11:33;100484.63;;;19.15;53.23
17764;BME280;22245;52.832;13.816;2023-04-23T16:14:55;100483.25;;;19.55;51.79
17764;BME280;22245;52.832;13.816;2023-04-23T16:18:17;100477.28;;;19.59;50.56
17764;BME280;22245;52.832;13.816;2023-04-23T16:21:40;100482.38;;;19.47;50.33
17764;BME280;22245;52.832;13.816;2023-04-23T16:25:01;100482.06;;;19.35;51.18
17764;BME280;22245;52.832;13.816;2023-04-23T16:28:23;100467.38;;;19.38;51.45
17764;BME280;22245;52.832;13.816;2023-04-23T16:31:44;100462.16;;;19.36;51.58
17764;BME280;22245;52.832;13.816;2023-04-23T16:35:06;100467.94;;;19.33;51.89
17764;BME280;22245;52.832;13.816;2023-04-23T16:38:29;100465.16;;;19.20;52.47
17764;BME280;22245;52.832;13.816;2023-04-23T16:41:51;100471.19;;;19.00;53.01
17764;BME280;22245;52.832;13.816;2023-04-23T16:45:13;100465.19;;;18.83;53.27
17764;BME280;22245;52.832;13.816;2023-04-23T16:48:34;100459.03;;;18.68;53.31
17764;BME280;22245;52.832;13.816;2023-04-23T16:51:56;100461.56;;;18.54;53.35
17764;BME280;22245;52.832;13.816;2023-04-23T16:55:19;100450.72;;;18.47;54.00
17764;BME280;22245;52.832;13.816;2023-04-23T16:58:40;100449.34;;;18.36;54.96
17764;BME280;22245;52.832;13.816;2023-04-23T17:02:02;100446.13;;;18.26;56.02
17764;BME280;22245;52.832;13.816;2023-04-23T17:05:24;100449.28;;;18.15;57.14
17764;BME280;22245;52.832;13.816;2023-04-23T17:08:46;100452.00;;;18.00;56.95
17764;BME280;22245;52.832;13.816;2023-04-23T17:12:09;100448.94;;;17.88;58.17
17764;BME280;22245;52.832;13.816;2023-04-23T17:15:31;100434.25;;;17.75;58.65
17764;BME280;22245;52.832;13.816;2023-04-23T17:18:53;100436.75;;;17.62;58.78
17764;BME280;22245;52.832;13.816;2023-04-23T17:22:15;100440.56;;;17.53;60.10
17764;BME280;22245;52.832;13.816;2023-04-23T17:25:37;100434.97;;;17.39;60.75
17764;BME280;22245;52.832;13.816;2023-04-23T17:28:59;100429.22;;;17.27;61.77